createdAt,value
2022-10-15T00:01:43.885Z,94.37
2022-10-15T00:04:11.405Z,81.67
2022-10-15T00:06:40.267Z,88.50
2022-10-15T00:09:07.681Z,107.53
2022-10-15T00:11:35.566Z,119.93
2022-10-15T00:14:02.920Z,100.70
2022-10-15T00:16:30.476Z,112.93
2022-10-15T00:18:59.163Z,112.63
2022-10-15T00:21:26.872Z,112.37
2022-10-15T00:23:56.297Z,127.93
2022-10-15T00:26:26.167Z,78.43
2022-10-15T00:28:55.231Z,108.83
2022-10-15T00:31:24.299Z,123.10
2022-10-15T00:33:52.296Z,111.33
2022-10-15T00:36:22.388Z,132.37
2022-10-15T00:38:50.596Z,119.47
2022-10-15T00:41:21.972Z,143.20
2022-10-15T00:43:50.695Z,138.13
2022-10-15T00:46:22.510Z,153.53
2022-10-15T00:48:52.845Z,143.57
2022-10-15T00:51:21.002Z,153.87
2022-10-15T00:53:49.541Z,119.80
2022-10-15T00:56:22.093Z,121.33
2022-10-15T00:58:49.945Z,140.67
2022-10-15T01:01:17.393Z,121.33
2022-10-15T01:03:44.808Z,131.00
2022-10-15T01:06:12.254Z,139.60
2022-10-15T01:08:41.568Z,133.90
2022-10-15T01:11:22.942Z,177.57
2022-10-15T01:13:54.917Z,151.20
2022-10-15T01:16:26.117Z,173.30
2022-10-15T01:18:57.650Z,151.30
2022-10-15T01:21:30.089Z,162.57
2022-10-15T01:24:43.850Z,149.30
2022-10-15T01:27:22.445Z,150.20
2022-10-15T01:30:25.608Z,167.57
2022-10-15T01:33:10.472Z,162.63
2022-10-15T01:35:45.373Z,228.37
2022-10-15T01:38:28.524Z,150.60
2022-10-15T01:40:58.499Z,166.10
2022-10-15T01:43:31.509Z,217.90
2022-10-15T01:46:28.272Z,247.00
2022-10-15T01:49:05.125Z,196.17
2022-10-15T01:51:34.433Z,193.57
2022-10-15T01:54:03.197Z,192.10
2022-10-15T01:56:32.909Z,231.23
2022-10-15T01:59:00.465Z,267.23
2022-10-15T02:01:30.841Z,234.60
2022-10-15T02:03:58.270Z,254.37
2022-10-15T02:06:31.740Z,200.67
2022-10-15T02:09:08.841Z,217.30
2022-10-15T02:11:42.869Z,289.87
2022-10-15T02:14:12.737Z,210.80
2022-10-15T02:16:45.118Z,193.07
2022-10-15T02:19:19.538Z,199.23
2022-10-15T02:21:48.865Z,226.77
2022-10-15T02:24:20.844Z,255.07
2022-10-15T02:26:48.955Z,265.70
2022-10-15T02:29:19.069Z,276.57
2022-10-15T02:31:48.965Z,229.07
2022-10-15T02:34:18.996Z,285.87
2022-10-15T02:36:46.930Z,307.17
2022-10-15T02:39:16.981Z,271.97
2022-10-15T02:41:44.771Z,265.70
2022-10-15T02:44:13.967Z,274.97
2022-10-15T02:46:41.533Z,278.03
2022-10-15T02:49:12.398Z,248.37
2022-10-15T02:51:39.927Z,272.50
2022-10-15T02:54:08.415Z,349.53
2022-10-15T02:56:39.040Z,228.93
2022-10-15T02:59:06.926Z,304.40
2022-10-15T03:01:34.295Z,478.13
2022-10-15T03:04:02.457Z,232.80
2022-10-15T03:06:32.301Z,246.67
2022-10-15T03:09:00.045Z,224.93
2022-10-15T03:11:27.627Z,354.63
2022-10-15T03:13:55.130Z,435.60
2022-10-15T03:16:22.584Z,228.90
2022-10-15T03:18:50.341Z,210.60
2022-10-15T03:21:19.389Z,306.93
2022-10-15T03:23:48.772Z,225.27
2022-10-15T03:26:20.249Z,257.93
2022-10-15T03:28:47.643Z,358.97
2022-10-15T03:31:26.240Z,267.37
2022-10-15T03:33:56.783Z,293.13
2022-10-15T03:36:26.394Z,266.80
2022-10-15T03:38:55.191Z,247.17
2022-10-15T03:41:23.774Z,180.10
2022-10-15T03:43:52.065Z,201.50
2022-10-15T03:46:19.486Z,203.97
2022-10-15T03:48:50.818Z,309.40
2022-10-15T03:51:23.482Z,278.70
2022-10-15T03:53:58.669Z,276.13
2022-10-15T03:56:26.096Z,319.57
2022-10-15T03:58:59.152Z,242.63
2022-10-15T04:01:26.612Z,382.93
2022-10-15T04:03:54.362Z,270.00
2022-10-15T04:06:25.488Z,339.83
2022-10-15T04:08:53.771Z,472.60
2022-10-15T04:11:26.024Z,554.23
2022-10-15T04:14:01.884Z,542.10
2022-10-15T04:16:31.785Z,376.60
2022-10-15T04:18:59.519Z,386.30
2022-10-15T04:21:27.282Z,213.70
2022-10-15T04:23:59.272Z,297.80
2022-10-15T04:26:36.653Z,245.40
2022-10-15T04:29:04.456Z,223.20
2022-10-15T04:31:33.324Z,244.30
2022-10-15T04:34:01.704Z,208.10
2022-10-15T04:36:29.424Z,235.03
2022-10-15T04:39:01.016Z,255.03
2022-10-15T04:41:39.017Z,287.43
2022-10-15T04:44:18.316Z,231.87
2022-10-15T04:46:52.328Z,215.27
2022-10-15T04:49:32.753Z,232.97
2022-10-15T04:52:01.359Z,234.97
2022-10-15T04:54:31.519Z,243.63
2022-10-15T04:57:04.181Z,254.50
2022-10-15T04:59:31.803Z,248.33
2022-10-15T05:02:22.656Z,230.43
2022-10-15T05:04:55.647Z,302.77
2022-10-15T05:07:23.538Z,219.13
2022-10-15T05:09:52.535Z,248.33
2022-10-15T05:12:21.364Z,297.17
2022-10-15T05:14:48.734Z,296.37
2022-10-15T05:17:22.722Z,285.10
2022-10-15T05:19:50.298Z,262.97
2022-10-15T05:22:22.129Z,281.93
2022-10-15T05:24:53.597Z,277.20
2022-10-15T05:27:31.128Z,278.30
2022-10-15T05:29:59.565Z,316.57
2022-10-15T05:32:36.965Z,367.67
2022-10-15T05:35:05.678Z,316.80
2022-10-15T05:37:52.800Z,296.37
2022-10-15T05:40:22.010Z,311.30
2022-10-15T05:43:05.034Z,303.73
2022-10-15T05:45:32.466Z,328.63
2022-10-15T05:48:05.436Z,363.80
2022-10-15T05:50:32.885Z,317.40
2022-10-15T05:53:02.384Z,325.03
2022-10-15T05:55:47.248Z,327.70
2022-10-15T05:58:15.888Z,304.37
2022-10-15T06:00:43.240Z,276.97
2022-10-15T06:03:13.611Z,326.40
2022-10-15T06:05:41.052Z,352.17
2022-10-15T06:08:08.561Z,334.43
2022-10-15T06:10:37.625Z,269.87
2022-10-15T06:13:05.393Z,322.20
2022-10-15T06:15:34.701Z,223.00
2022-10-15T06:18:02.345Z,252.57
2022-10-15T06:20:29.737Z,287.53
2022-10-15T06:23:00.541Z,289.63
2022-10-15T06:25:28.549Z,264.60
2022-10-15T06:27:56.008Z,287.03
2022-10-15T06:30:27.859Z,244.77
2022-10-15T06:32:56.621Z,245.10
2022-10-15T06:35:24.768Z,268.40
2022-10-15T06:37:52.745Z,231.43
2022-10-15T06:40:20.181Z,258.10
2022-10-15T06:42:51.991Z,244.80
2022-10-15T06:45:21.710Z,275.50
2022-10-15T06:47:49.358Z,227.37
2022-10-15T06:50:18.349Z,227.47
2022-10-15T06:52:45.807Z,263.27
2022-10-15T06:55:13.322Z,227.90
2022-10-15T06:57:40.706Z,208.57
2022-10-15T07:00:09.020Z,218.00
2022-10-15T07:02:36.641Z,163.77
2022-10-15T07:05:04.152Z,179.73
2022-10-15T07:07:32.885Z,182.57
2022-10-15T07:10:00.233Z,184.97
2022-10-15T07:12:27.624Z,183.00
2022-10-15T07:14:55.017Z,181.27
2022-10-15T07:17:22.493Z,195.27
2022-10-15T07:19:49.881Z,164.77
2022-10-15T07:22:17.224Z,171.03
2022-10-15T07:24:45.943Z,162.40
2022-10-15T07:27:20.351Z,164.40
2022-10-15T07:29:49.324Z,151.50
2022-10-15T07:32:16.727Z,156.60
2022-10-15T07:34:44.166Z,166.53
2022-10-15T07:37:11.498Z,175.23
2022-10-15T07:39:40.850Z,167.33
2022-10-15T07:42:10.509Z,151.17
2022-10-15T07:44:37.936Z,167.03
2022-10-15T07:47:10.524Z,172.83
2022-10-15T07:49:37.883Z,143.83
2022-10-15T07:52:05.292Z,145.90
2022-10-15T07:54:33.841Z,138.07
2022-10-15T07:57:01.277Z,148.37
2022-10-15T07:59:30.001Z,139.20
2022-10-15T08:01:57.344Z,136.57
2022-10-15T08:04:24.761Z,135.37
2022-10-15T08:06:52.121Z,133.20
2022-10-15T08:09:20.094Z,129.60
2022-10-15T08:11:47.482Z,125.57
2022-10-15T08:14:18.384Z,121.80
2022-10-15T08:16:47.070Z,120.90
2022-10-15T08:19:17.410Z,108.40
2022-10-15T08:21:47.464Z,93.90
2022-10-15T08:24:15.092Z,89.77
2022-10-15T08:26:42.465Z,74.17
2022-10-15T08:29:10.809Z,66.17
2022-10-15T08:31:38.245Z,58.93
2022-10-15T08:34:07.761Z,56.90
2022-10-15T08:36:35.373Z,55.17
2022-10-15T08:39:02.729Z,54.60
2022-10-15T08:41:33.803Z,52.77
2022-10-15T08:44:01.480Z,43.67
2022-10-15T08:46:32.658Z,39.87
2022-10-15T08:49:00.838Z,36.37
2022-10-15T08:51:34.758Z,38.13
2022-10-15T08:54:04.701Z,34.30
2022-10-15T08:56:36.600Z,34.27
2022-10-15T08:59:12.437Z,32.90
2022-10-15T09:01:44.604Z,35.97
2022-10-15T09:04:20.424Z,33.73
2022-10-15T09:06:50.513Z,34.00
2022-10-15T09:09:23.780Z,34.23
2022-10-15T09:11:58.393Z,34.50
2022-10-15T09:14:30.977Z,32.77
2022-10-15T09:17:00.961Z,34.57
2022-10-15T09:19:29.448Z,35.40
2022-10-15T09:22:02.030Z,32.10
2022-10-15T09:24:30.997Z,34.50
2022-10-15T09:27:05.006Z,32.00
2022-10-15T09:29:34.672Z,34.20
2022-10-15T09:32:08.524Z,31.93
2022-10-15T09:34:40.836Z,31.63
2022-10-15T09:37:15.384Z,31.73
2022-10-15T09:40:20.397Z,29.70
2022-10-15T09:42:50.706Z,30.37
2022-10-15T09:45:18.457Z,30.83
2022-10-15T09:47:46.590Z,30.10
2022-10-15T09:50:15.251Z,30.13
2022-10-15T09:52:55.684Z,29.83
2022-10-15T09:55:34.480Z,31.30
2022-10-15T09:58:04.771Z,29.53
2022-10-15T10:00:54.029Z,28.83
2022-10-15T10:03:23.408Z,30.43
2022-10-15T10:05:51.343Z,30.37
2022-10-15T10:08:22.726Z,29.50
2022-10-15T10:10:55.297Z,28.23
2022-10-15T10:13:25.545Z,29.17
2022-10-15T10:15:58.320Z,28.50
2022-10-15T10:18:27.114Z,29.93
2022-10-15T10:20:58.731Z,30.40
2022-10-15T10:23:31.854Z,28.50
2022-10-15T10:25:59.952Z,28.00
2022-10-15T10:28:30.090Z,27.63
2022-10-15T10:31:04.366Z,27.67
2022-10-15T10:33:34.649Z,28.93
2022-10-15T10:36:02.633Z,27.27
2022-10-15T10:38:33.542Z,27.97
2022-10-15T10:41:06.768Z,28.63
2022-10-15T10:43:39.151Z,27.47
2022-10-15T10:46:17.705Z,29.37
2022-10-15T10:48:49.179Z,28.07
2022-10-15T10:51:19.589Z,27.83
2022-10-15T10:53:55.381Z,27.73
2022-10-15T10:56:25.041Z,28.20
2022-10-15T10:58:56.924Z,26.87
2022-10-15T11:01:24.381Z,28.13
2022-10-15T11:03:51.787Z,27.57
2022-10-15T11:06:29.937Z,26.00
2022-10-15T11:09:07.918Z,27.07
2022-10-15T11:11:40.362Z,25.43
2022-10-15T11:14:17.483Z,25.43
2022-10-15T11:16:50.814Z,24.30
2022-10-15T11:19:54.723Z,24.87
2022-10-15T11:22:30.200Z,24.40
2022-10-15T11:25:07.531Z,25.57
2022-10-15T11:27:44.659Z,25.47
2022-10-15T11:30:20.864Z,24.47
2022-10-15T11:33:07.019Z,24.47
2022-10-15T11:35:52.842Z,22.77
2022-10-15T11:38:29.365Z,21.73
2022-10-15T11:41:08.688Z,21.67
2022-10-15T11:43:48.741Z,21.07
2022-10-15T11:46:20.764Z,20.67
2022-10-15T11:49:02.122Z,20.10
2022-10-15T11:51:33.144Z,20.20
2022-10-15T11:54:10.481Z,19.03
2022-10-15T11:56:41.307Z,19.60
2022-10-15T11:59:19.914Z,19.70
2022-10-15T12:01:49.517Z,19.03
2022-10-15T12:04:20.229Z,18.43
2022-10-15T12:06:51.855Z,18.43
2022-10-15T12:09:23.312Z,18.00
2022-10-15T12:11:54.389Z,18.40
2022-10-15T12:14:26.160Z,17.50
2022-10-15T12:16:59.531Z,19.20
2022-10-15T12:19:30.301Z,18.10
2022-10-15T12:22:09.492Z,17.90
2022-10-15T12:24:54.551Z,17.77
2022-10-15T12:27:26.298Z,17.03
2022-10-15T12:30:13.761Z,17.87
2022-10-15T12:32:42.612Z,17.70
2022-10-15T12:37:50.612Z,17.47
2022-10-15T12:40:27.916Z,16.90
2022-10-15T12:42:58.096Z,16.87
2022-10-15T12:45:37.304Z,17.30
2022-10-15T12:48:31.405Z,17.00
2022-10-15T12:51:38.632Z,16.50
2022-10-15T12:54:33.466Z,16.37
2022-10-15T12:57:00.773Z,16.00
2022-10-15T12:59:56.270Z,16.03
2022-10-15T13:02:37.429Z,16.27
2022-10-15T13:05:05.731Z,15.70
2022-10-15T13:07:35.808Z,15.60
2022-10-15T13:10:03.545Z,19.03
2022-10-15T13:12:31.188Z,20.40
2022-10-15T13:15:03.679Z,19.50
2022-10-15T13:17:31.393Z,19.07
2022-10-15T13:20:00.926Z,18.93
2022-10-15T13:22:29.468Z,17.60
2022-10-15T13:24:57.166Z,17.00
2022-10-15T13:27:26.421Z,16.03
2022-10-15T13:29:55.860Z,15.30
2022-10-15T13:32:25.091Z,14.40
2022-10-15T13:34:53.557Z,14.10
2022-10-15T13:37:25.836Z,13.10
2022-10-15T13:39:53.545Z,13.20
2022-10-15T13:42:23.909Z,12.70
2022-10-15T13:44:59.695Z,12.27
2022-10-15T13:47:30.921Z,12.93
2022-10-15T13:50:15.484Z,12.67
2022-10-15T13:52:44.637Z,12.60
2022-10-15T13:55:18.456Z,12.23
2022-10-15T14:00:26.664Z,11.67
2022-10-15T14:03:18.431Z,11.70
2022-10-15T14:05:47.342Z,11.00
2022-10-15T14:08:24.368Z,11.20
2022-10-15T14:10:53.371Z,10.70
2022-10-15T14:13:20.873Z,10.80
2022-10-15T14:15:57.184Z,10.90
2022-10-15T14:18:34.093Z,10.40
2022-10-15T14:21:02.196Z,9.80
2022-10-15T14:23:29.836Z,9.70
2022-10-15T14:26:00.073Z,11.03
2022-10-15T14:28:28.645Z,11.67
2022-10-15T14:30:57.089Z,10.97
2022-10-15T14:33:43.246Z,12.00
2022-10-15T14:36:15.297Z,10.40
2022-10-15T14:40:22.328Z,10.77
2022-10-15T14:42:51.655Z,10.30
2022-10-15T14:45:25.393Z,9.80
2022-10-15T14:47:55.132Z,9.90
2022-10-15T14:50:25.661Z,9.80
2022-10-15T14:52:54.418Z,9.50
2022-10-15T14:55:32.957Z,9.40
2022-10-15T14:58:01.958Z,9.60
2022-10-15T15:00:32.825Z,9.10
2022-10-15T15:03:02.484Z,9.10
2022-10-15T15:05:30.226Z,10.17
2022-10-15T15:08:01.843Z,9.40
2022-10-15T15:10:32.937Z,9.57
2022-10-15T15:13:02.833Z,9.80
2022-10-15T15:15:30.197Z,9.80
2022-10-15T15:17:57.562Z,10.70
2022-10-15T15:20:25.845Z,10.90
2022-10-15T15:22:55.109Z,10.97
2022-10-15T15:25:25.924Z,10.70
2022-10-15T15:27:54.639Z,10.57
2022-10-15T15:30:24.145Z,10.80
2022-10-15T15:32:51.853Z,10.60
2022-10-15T15:35:24.701Z,10.10
2022-10-15T15:37:52.297Z,9.70
2022-10-15T15:40:20.141Z,9.43
2022-10-15T15:42:48.813Z,9.33
2022-10-15T15:45:21.434Z,8.80
2022-10-15T15:47:48.918Z,9.40
2022-10-15T15:50:16.781Z,9.80
2022-10-15T15:52:44.333Z,9.13
2022-10-15T15:55:12.288Z,9.40
2022-10-15T15:57:39.666Z,9.60
2022-10-15T16:00:09.606Z,10.13
2022-10-15T16:02:39.001Z,9.23
2022-10-15T16:05:07.518Z,8.80
2022-10-15T16:07:35.223Z,8.83
2022-10-15T16:10:03.869Z,8.70
2022-10-15T16:12:33.830Z,9.87
2022-10-15T16:15:01.389Z,9.10
2022-10-15T16:17:28.860Z,9.10
2022-10-15T16:19:57.560Z,9.20
2022-10-15T16:22:24.899Z,8.03
2022-10-15T16:24:52.264Z,8.13
2022-10-15T16:27:19.737Z,8.30
2022-10-15T16:29:47.338Z,8.17
2022-10-15T16:32:14.963Z,8.20
2022-10-15T16:34:42.273Z,8.10
2022-10-15T16:37:10.944Z,8.00
2022-10-15T16:39:38.272Z,7.77
2022-10-15T16:42:05.719Z,7.97
2022-10-15T16:44:33.133Z,8.10
2022-10-15T16:47:00.481Z,8.10
2022-10-15T16:49:28.224Z,8.10
2022-10-15T16:51:55.600Z,8.80
2022-10-15T16:54:24.321Z,8.60
2022-10-15T16:56:52.954Z,8.47
2022-10-15T16:59:20.568Z,9.20
2022-10-15T17:01:48.102Z,9.10
2022-10-15T17:04:15.457Z,8.77
2022-10-15T17:06:42.821Z,8.93
2022-10-15T17:09:10.130Z,10.10
2022-10-15T17:11:40.868Z,10.20
2022-10-15T17:14:10.487Z,9.50
2022-10-15T17:16:39.498Z,9.30
2022-10-15T17:19:07.423Z,8.90
2022-10-15T17:21:35.142Z,7.67
2022-10-15T17:24:04.660Z,8.07
2022-10-15T17:26:36.101Z,7.80
2022-10-15T17:29:05.972Z,8.00
2022-10-15T17:31:33.500Z,8.20
2022-10-15T17:34:02.433Z,7.67
2022-10-15T17:36:32.057Z,8.27
2022-10-15T17:38:59.878Z,7.33
2022-10-15T17:41:30.656Z,8.40
2022-10-15T17:43:58.428Z,8.03
2022-10-15T17:46:28.754Z,7.77
2022-10-15T17:48:56.621Z,7.10
2022-10-15T17:51:25.648Z,7.13
2022-10-15T17:53:57.680Z,7.37
2022-10-15T17:56:27.320Z,6.60
2022-10-15T17:58:57.112Z,6.90
2022-10-15T18:01:33.738Z,7.00
2022-10-15T18:04:13.708Z,6.90
2022-10-15T18:06:44.111Z,6.97
2022-10-15T18:09:16.911Z,6.70
2022-10-15T18:11:45.982Z,7.30
2022-10-15T18:14:13.840Z,7.20
2022-10-15T18:16:43.180Z,7.20
2022-10-15T18:19:13.249Z,6.97
2022-10-15T18:21:41.406Z,6.90
2022-10-15T18:24:10.137Z,7.10
2022-10-15T18:26:37.606Z,7.30
2022-10-15T18:29:05.703Z,7.17
2022-10-15T18:31:33.124Z,7.07
2022-10-15T18:34:01.857Z,8.00
2022-10-15T18:36:30.616Z,8.17
2022-10-15T18:38:58.553Z,7.60
2022-10-15T18:41:28.100Z,7.63
2022-10-15T18:43:57.486Z,8.33
2022-10-15T18:46:29.820Z,7.70
2022-10-15T18:48:57.460Z,8.80
2022-10-15T18:51:28.668Z,8.53
2022-10-15T18:53:56.370Z,8.67
2022-10-15T18:56:23.905Z,8.50
2022-10-15T18:58:52.302Z,9.03
2022-10-15T19:01:26.379Z,9.30
2022-10-15T19:03:53.797Z,8.50
2022-10-15T19:06:21.429Z,9.50
2022-10-15T19:08:50.680Z,8.70
2022-10-15T19:11:18.821Z,8.70
2022-10-15T19:13:46.201Z,8.00
2022-10-15T19:16:13.560Z,8.23
2022-10-15T19:18:41.438Z,8.50
2022-10-15T19:21:09.013Z,8.43
2022-10-15T19:23:36.596Z,10.20
2022-10-15T19:26:09.109Z,10.10
2022-10-15T19:28:37.441Z,10.70
2022-10-15T19:31:07.025Z,10.53
2022-10-15T19:33:36.701Z,11.43
2022-10-15T19:36:04.982Z,11.90
2022-10-15T19:38:32.369Z,11.33
2022-10-15T19:41:02.953Z,11.07
2022-10-15T19:43:31.629Z,11.40
2022-10-15T19:46:03.670Z,10.63
2022-10-15T19:48:32.368Z,11.13
2022-10-15T19:51:01.777Z,11.00
2022-10-15T19:53:29.460Z,10.53
2022-10-15T19:55:58.442Z,10.87
2022-10-15T19:58:26.614Z,11.03
2022-10-15T20:00:55.838Z,11.00
2022-10-15T20:03:24.509Z,11.30
2022-10-15T20:05:51.953Z,11.60
2022-10-15T20:08:19.460Z,10.73
2022-10-15T20:10:48.721Z,11.37
2022-10-15T20:13:16.708Z,11.50
2022-10-15T20:15:45.051Z,11.40
2022-10-15T20:18:13.900Z,12.33
2022-10-15T20:20:43.385Z,11.73
2022-10-15T20:23:11.707Z,12.40
2022-10-15T20:25:39.124Z,11.73
2022-10-15T20:28:06.642Z,11.87
2022-10-15T20:30:34.023Z,11.80
2022-10-15T20:33:01.378Z,11.90
2022-10-15T20:35:30.168Z,11.77
2022-10-15T20:37:57.516Z,12.47
2022-10-15T20:40:24.877Z,12.00
2022-10-15T20:42:52.284Z,12.47
2022-10-15T20:45:19.949Z,11.90
2022-10-15T20:47:49.860Z,13.40
2022-10-15T20:50:19.537Z,13.63
2022-10-15T20:52:48.403Z,13.27
2022-10-15T20:55:15.943Z,13.00
2022-10-15T20:57:43.354Z,13.57
2022-10-15T21:00:11.892Z,13.60
2022-10-15T21:02:39.219Z,14.10
2022-10-15T21:05:07.439Z,14.23
2022-10-15T21:07:34.886Z,14.20
2022-10-15T21:10:03.572Z,14.00
2022-10-15T21:12:30.933Z,13.87
2022-10-15T21:14:58.293Z,14.17
2022-10-15T21:17:25.921Z,13.67
2022-10-15T21:19:53.541Z,14.33
2022-10-15T21:22:20.965Z,14.50
2022-10-15T21:24:48.301Z,14.53
2022-10-15T21:27:16.944Z,14.40
2022-10-15T21:29:45.538Z,14.70
2022-10-15T21:32:12.876Z,13.83
2022-10-15T21:37:12.574Z,14.00
2022-10-15T21:39:39.962Z,13.77
2022-10-15T21:42:07.305Z,13.93
2022-10-15T21:44:36.004Z,13.27
2022-10-15T21:47:05.001Z,14.00
2022-10-15T21:49:32.348Z,13.40
2022-10-15T21:51:59.661Z,12.70
2022-10-15T21:54:27.081Z,13.00
2022-10-15T21:56:54.416Z,13.03
2022-10-15T21:59:21.963Z,12.40
2022-10-15T22:01:50.612Z,12.57
2022-10-15T22:04:17.969Z,11.87
2022-10-15T22:06:45.285Z,11.57
2022-10-15T22:09:12.605Z,11.70
2022-10-15T22:11:41.787Z,11.53
2022-10-15T22:14:11.884Z,11.00
2022-10-15T22:16:40.154Z,11.47
2022-10-15T22:19:09.591Z,11.67
2022-10-15T22:21:38.670Z,11.77
2022-10-15T22:24:08.903Z,11.00
2022-10-15T22:26:38.849Z,11.07
2022-10-15T22:29:07.883Z,11.37
2022-10-15T22:31:35.449Z,11.90
2022-10-15T22:34:02.824Z,10.97
2022-10-15T22:36:32.343Z,11.40
2022-10-15T22:39:02.237Z,10.93
2022-10-15T22:41:30.582Z,10.77
2022-10-15T22:43:58.461Z,10.70
2022-10-15T22:46:25.965Z,11.03
2022-10-15T22:48:53.596Z,10.73
2022-10-15T22:51:21.915Z,10.77
2022-10-15T22:53:50.558Z,11.20
2022-10-15T22:56:19.388Z,10.47
2022-10-15T22:58:47.141Z,10.33
2022-10-15T23:01:16.429Z,10.00
2022-10-15T23:03:45.509Z,11.07
2022-10-15T23:06:13.865Z,10.67
2022-10-15T23:08:41.540Z,10.40
2022-10-15T23:11:12.016Z,10.23
2022-10-15T23:13:40.708Z,10.47
2022-10-15T23:16:13.952Z,11.53
2022-10-15T23:18:41.929Z,10.27
2022-10-15T23:21:13.633Z,12.00
2022-10-15T23:23:41.257Z,9.70
2022-10-15T23:26:11.905Z,10.47
2022-10-15T23:28:39.716Z,10.80
2022-10-15T23:31:07.335Z,9.80
2022-10-15T23:33:34.697Z,10.20
2022-10-15T23:36:04.745Z,11.27
2022-10-15T23:38:32.419Z,10.70
2022-10-15T23:41:01.386Z,12.23
2022-10-15T23:43:30.536Z,9.57
2022-10-15T23:45:58.021Z,9.77
2022-10-15T23:48:26.240Z,10.00
2022-10-15T23:50:53.802Z,10.30
2022-10-15T23:53:21.488Z,10.47
2022-10-15T23:55:49.085Z,10.83
2022-10-15T23:58:16.589Z,10.17
